This is the latest recevied weather packets stored in our database for station/object IR2UAZ. If no packets are shown the sender has not sent any weather packets the latest 10 day(s).
| Time | Temp. | Humidity | Pressure | Rain* | Wind** | Luminosity | Snow |
|---|---|---|---|---|---|---|---|
| 1777906898 | 10° C | 62% | 1011.5 hPa | - | - | - | - |
| 1777906889 | 10° C | 61% | 1011.6 hPa | - | - | - | - |
| 1777906881 | 10° C | 61% | 1011.6 hPa | - | - | - | - |
| 1777906873 | 10° C | 61% | 1011.6 hPa | - | - | - | - |
| 1777906758 | 11.11° C | 65% | 1011.3 hPa | - | - | - | - |
| 1777904357 | 11.11° C | 65% | 1011.8 hPa | - | - | - | - |
| 1777903156 | 11.11° C | 65% | 1011.8 hPa | - | - | - | - |
| 1777901955 | 10.56° C | 65% | 1012.1 hPa | - | - | - | - |
| 1777900754 | 10.56° C | 65% | 1012.1 hPa | - | - | - | - |
| 1777898352 | 10.56° C | 65% | 1012.2 hPa | - | - | - | - |
| 1777897152 | 10.56° C | 65% | 1012.4 hPa | - | - | - | - |
| 1777895951 | 10.56° C | 65% | 1012.4 hPa | - | - | - | - |
| 1777894440 | 10° C | 61% | 1011.8 hPa | - | - | - | - |
| 1777892348 | 10.56° C | 65% | 1012.5 hPa | - | - | - | - |
| 1777891148 | 10.56° C | 64% | 1012.6 hPa | - | - | - | - |
| 1777889946 | 10.56° C | 64% | 1012.6 hPa | - | - | - | - |
| 1777888746 | 10.56° C | 64% | 1012.6 hPa | - | - | - | - |
| 1777888650 | 10° C | 61% | 1011.8 hPa | - | - | - | - |
| 1777887545 | 10.56° C | 63% | 1012.6 hPa | - | - | - | - |
| 1777886344 | 10.56° C | 64% | 1012.6 hPa | - | - | - | - |
| 1777885143 | 10.56° C | 63% | 1012.4 hPa | - | - | - | - |
| 1777883942 | 10.56° C | 63% | 1012.3 hPa | - | - | - | - |
| 1777882741 | 10.56° C | 63% | 1012.4 hPa | - | - | - | - |
| 1777881541 | 10.56° C | 63% | 1012.4 hPa | - | - | - | - |
| 1777880341 | 10.56° C | 63% | 1012.3 hPa | - | - | - | - |
* Rain since midnight (hover to see other rain measurements)
** Current wind speed in m/s (hover to see current wind gust speed)